createdAt,value
2023-02-14T00:01:29.146Z,6.30
2023-02-14T00:04:00.825Z,5.90
2023-02-14T00:06:29.072Z,6.20
2023-02-14T00:11:23.735Z,6.40
2023-02-14T00:14:09.127Z,5.90
2023-02-14T00:21:35.847Z,5.90
2023-02-14T00:24:08.745Z,5.90
2023-02-14T00:29:13.621Z,5.90
2023-02-14T00:31:42.051Z,6.20
2023-02-14T00:34:10.094Z,5.70
2023-02-14T00:39:06.349Z,6.40
2023-02-14T00:41:33.768Z,6.30
2023-02-14T00:44:00.973Z,5.80
2023-02-14T00:46:27.924Z,6.00
2023-02-14T00:48:55.337Z,5.70
2023-02-14T00:51:23.074Z,6.00
2023-02-14T00:53:50.630Z,5.90
2023-02-14T00:56:18.372Z,5.90
2023-02-14T00:58:45.578Z,5.70
2023-02-14T01:01:13.903Z,5.90
2023-02-14T01:03:41.217Z,5.60
2023-02-14T01:06:10.857Z,5.90
2023-02-14T01:08:40.287Z,6.10
2023-02-14T01:11:27.203Z,6.10
2023-02-14T01:13:56.174Z,5.80
2023-02-14T01:16:25.066Z,5.90
2023-02-14T01:18:53.020Z,6.00
2023-02-14T01:21:37.060Z,5.80
2023-02-14T01:24:07.549Z,6.00
2023-02-14T01:26:35.977Z,6.20
2023-02-14T01:29:04.578Z,6.10
2023-02-14T01:31:33.739Z,5.90
2023-02-14T01:34:01.220Z,5.80
2023-02-14T01:36:31.558Z,6.00
2023-02-14T01:39:02.323Z,5.90
2023-02-14T01:41:32.155Z,5.90
2023-02-14T01:44:02.218Z,5.80
2023-02-14T01:46:35.447Z,5.90
2023-02-14T01:49:05.787Z,5.90
2023-02-14T01:51:33.936Z,5.90
2023-02-14T01:54:02.152Z,6.00
2023-02-14T01:56:37.530Z,5.70
2023-02-14T01:59:08.244Z,5.60
2023-02-14T02:01:35.686Z,6.20
2023-02-14T02:04:14.702Z,6.00
2023-02-14T02:06:45.794Z,5.90
2023-02-14T02:09:19.258Z,6.20
2023-02-14T02:11:46.129Z,5.80
2023-02-14T02:14:16.179Z,6.10
2023-02-14T02:17:05.347Z,5.90
2023-02-14T02:19:53.804Z,5.90
2023-02-14T02:22:41.719Z,5.80
2023-02-14T02:25:29.631Z,5.70
2023-02-14T02:28:15.014Z,5.70
2023-02-14T02:31:18.161Z,5.40
2023-02-14T02:34:06.832Z,5.70
2023-02-14T02:36:39.785Z,5.60
2023-02-14T02:39:21.379Z,5.70
2023-02-14T02:42:26.923Z,5.90
2023-02-14T02:45:31.403Z,5.80
2023-02-14T02:48:04.583Z,5.80
2023-02-14T02:50:58.430Z,5.70
2023-02-14T02:53:47.518Z,5.80
2023-02-14T02:56:46.468Z,5.80
2023-02-14T02:59:43.610Z,5.70
2023-02-14T03:02:18.461Z,5.40
2023-02-14T03:04:55.214Z,6.10
2023-02-14T03:07:36.618Z,5.60
2023-02-14T03:10:17.182Z,6.30
2023-02-14T03:15:20.124Z,5.60
2023-02-14T03:18:26.329Z,5.60
2023-02-14T03:21:04.132Z,5.90
2023-02-14T03:23:38.814Z,5.80
2023-02-14T03:26:18.323Z,5.70
2023-02-14T03:29:02.002Z,5.70
2023-02-14T03:31:40.349Z,5.60
2023-02-14T03:34:19.982Z,5.80
2023-02-14T03:37:10.684Z,5.60
2023-02-14T03:40:02.199Z,5.80
2023-02-14T03:42:35.435Z,5.40
2023-02-14T03:45:06.231Z,5.70
2023-02-14T03:47:36.262Z,6.00
2023-02-14T03:50:13.738Z,5.80
2023-02-14T03:52:44.862Z,5.70
2023-02-14T03:55:17.108Z,4.90
2023-02-14T03:58:14.144Z,5.90
2023-02-14T04:00:43.367Z,6.00
2023-02-14T04:03:14.268Z,5.60
2023-02-14T04:05:43.892Z,5.70
2023-02-14T04:08:12.275Z,5.50
2023-02-14T04:10:40.217Z,5.60
2023-02-14T04:13:07.049Z,5.50
2023-02-14T04:15:34.530Z,5.90
2023-02-14T04:18:20.278Z,5.70
2023-02-14T04:25:43.071Z,5.60
2023-02-14T04:33:05.243Z,5.50
2023-02-14T04:35:31.983Z,5.50
2023-02-14T04:37:59.210Z,8.30
2023-02-14T04:40:26.446Z,5.70
2023-02-14T04:42:53.371Z,5.40
2023-02-14T04:45:20.236Z,5.60
2023-02-14T04:47:47.129Z,6.10
2023-02-14T04:50:14.867Z,5.40
2023-02-14T04:52:42.115Z,5.50
2023-02-14T04:55:10.460Z,5.40
2023-02-14T05:00:05.385Z,5.70
2023-02-14T05:07:27.090Z,6.10
2023-02-14T05:09:56.685Z,5.50
2023-02-14T05:12:23.497Z,6.10
2023-02-14T05:14:50.636Z,5.50
2023-02-14T05:22:12.446Z,5.60
2023-02-14T05:24:39.375Z,5.00
2023-02-14T05:27:06.582Z,7.00
2023-02-14T05:29:33.371Z,5.90
2023-02-14T05:32:00.606Z,5.80
2023-02-14T05:34:28.008Z,6.10
2023-02-14T05:36:55.474Z,5.80
2023-02-14T05:39:22.275Z,5.80
2023-02-14T05:41:49.073Z,5.40
2023-02-14T05:44:17.339Z,5.70
2023-02-14T05:46:44.084Z,5.70
2023-02-14T05:49:11.277Z,8.20
2023-02-14T05:51:38.092Z,5.70
2023-02-14T05:54:05.363Z,5.80
2023-02-14T05:56:32.125Z,5.70
2023-02-14T05:58:59.216Z,5.50
2023-02-14T06:01:26.030Z,6.50
2023-02-14T06:03:52.862Z,5.60
2023-02-14T06:06:20.002Z,7.50
2023-02-14T06:08:47.152Z,7.80
2023-02-14T06:11:13.915Z,5.70
2023-02-14T06:13:41.914Z,7.00
2023-02-14T06:16:08.730Z,6.80
2023-02-14T06:18:36.044Z,5.80
2023-02-14T06:21:03.431Z,7.00
2023-02-14T06:23:30.174Z,5.40
2023-02-14T06:25:57.362Z,7.40
2023-02-14T06:28:24.189Z,5.90
2023-02-14T06:30:51.716Z,5.50
2023-02-14T06:33:18.600Z,5.40
2023-02-14T06:35:45.656Z,5.40
2023-02-14T06:38:12.426Z,7.10
2023-02-14T06:40:39.220Z,6.80
2023-02-14T06:43:06.216Z,5.50
2023-02-14T06:45:33.375Z,5.40
2023-02-14T06:48:00.728Z,6.50
2023-02-14T06:50:27.873Z,5.40
2023-02-14T06:52:54.632Z,5.50
2023-02-14T06:55:21.452Z,5.50
2023-02-14T06:57:48.177Z,6.50
2023-02-14T07:00:15.259Z,5.70
2023-02-14T07:02:42.617Z,5.70
2023-02-14T07:05:09.903Z,7.20
2023-02-14T07:07:37.261Z,5.60
2023-02-14T07:10:04.585Z,5.50
2023-02-14T07:12:31.736Z,5.70
2023-02-14T07:14:58.971Z,5.70
2023-02-14T07:17:25.709Z,5.70
2023-02-14T07:19:52.902Z,5.60
2023-02-14T07:22:19.713Z,7.50
2023-02-14T07:24:46.543Z,5.80
2023-02-14T07:27:13.336Z,6.30
2023-02-14T07:29:40.690Z,6.00
2023-02-14T07:32:08.044Z,7.40
2023-02-14T07:34:34.980Z,5.90
2023-02-14T07:37:02.291Z,6.40
2023-02-14T07:39:29.420Z,5.70
2023-02-14T07:41:56.242Z,5.80
2023-02-14T07:44:23.431Z,7.30
2023-02-14T07:46:50.243Z,6.60
2023-02-14T07:49:17.034Z,6.50
2023-02-14T07:51:43.848Z,6.60
2023-02-14T07:54:10.587Z,7.10
2023-02-14T07:56:37.624Z,6.40
2023-02-14T07:59:04.366Z,6.60
2023-02-14T08:01:31.691Z,8.20
2023-02-14T08:03:58.561Z,6.40
2023-02-14T08:06:28.214Z,6.30
2023-02-14T08:08:55.132Z,6.20
2023-02-14T08:11:41.460Z,6.20
2023-02-14T08:14:08.216Z,7.10
2023-02-14T08:16:38.583Z,6.40
2023-02-14T08:19:05.843Z,6.40
2023-02-14T08:21:33.139Z,6.30
2023-02-14T08:24:00.816Z,7.70
2023-02-14T08:26:27.637Z,7.00
2023-02-14T08:28:54.845Z,6.60
2023-02-14T08:31:35.019Z,6.80
2023-02-14T08:34:03.028Z,6.70
2023-02-14T08:36:30.194Z,6.80
2023-02-14T08:38:57.789Z,7.30
2023-02-14T08:41:24.911Z,6.90
2023-02-14T08:43:52.077Z,6.90
2023-02-14T08:46:19.371Z,6.90
2023-02-14T08:48:46.245Z,6.80
2023-02-14T08:51:15.166Z,7.20
2023-02-14T08:53:42.638Z,6.70
2023-02-14T08:56:12.266Z,8.30
2023-02-14T08:58:40.095Z,6.80
2023-02-14T09:01:17.395Z,6.90
2023-02-14T09:06:17.821Z,6.90
2023-02-14T09:08:45.678Z,6.90
2023-02-14T09:11:24.652Z,8.40
2023-02-14T09:13:53.745Z,7.10
2023-02-14T09:16:23.014Z,7.00
2023-02-14T09:18:50.648Z,8.40
2023-02-14T09:21:22.458Z,7.10
2023-02-14T09:23:49.366Z,7.00
2023-02-14T09:26:17.479Z,7.20
2023-02-14T09:28:44.892Z,7.40
2023-02-14T09:31:20.850Z,9.30
2023-02-14T09:33:48.915Z,7.30
2023-02-14T09:36:15.860Z,9.20
2023-02-14T09:38:42.604Z,7.70
2023-02-14T09:41:20.326Z,8.10
2023-02-14T09:44:04.282Z,7.40
2023-02-14T09:46:35.723Z,7.40
2023-02-14T09:49:03.609Z,7.50
2023-02-14T09:51:31.636Z,9.40
2023-02-14T09:54:12.405Z,9.50
2023-02-14T09:56:58.606Z,8.20
2023-02-14T09:59:48.435Z,7.70
2023-02-14T10:02:34.417Z,8.80
2023-02-14T10:05:28.292Z,8.00
2023-02-14T10:10:28.584Z,7.30
2023-02-14T10:13:12.728Z,7.80
2023-02-14T10:15:45.976Z,7.90
2023-02-14T10:18:24.953Z,8.10
2023-02-14T10:20:59.395Z,7.80
2023-02-14T10:23:34.661Z,8.10
2023-02-14T10:26:08.784Z,8.30
2023-02-14T10:28:40.677Z,10.00
2023-02-14T10:31:26.282Z,9.30
2023-02-14T10:33:57.703Z,7.70
2023-02-14T10:36:30.891Z,8.00
2023-02-14T10:39:17.749Z,7.90
2023-02-14T10:41:57.515Z,8.00
2023-02-14T10:44:27.065Z,10.50
2023-02-14T10:47:09.132Z,9.10
2023-02-14T10:49:39.442Z,9.60
2023-02-14T10:52:27.396Z,9.90
2023-02-14T10:54:57.665Z,8.50
2023-02-14T10:57:42.107Z,9.70
2023-02-14T11:00:23.148Z,8.60
2023-02-14T11:02:53.991Z,8.50
2023-02-14T11:05:31.563Z,8.80
2023-02-14T11:07:59.711Z,8.50
2023-02-14T11:10:34.250Z,8.60
2023-02-14T11:13:01.706Z,9.60
2023-02-14T11:15:35.652Z,8.90
2023-02-14T11:18:19.451Z,8.80
2023-02-14T11:21:06.802Z,9.10
2023-02-14T11:23:43.328Z,8.90
2023-02-14T11:26:22.976Z,8.80
2023-02-14T11:29:02.402Z,8.90
2023-02-14T11:31:34.321Z,8.60
2023-02-14T11:34:05.058Z,8.80
2023-02-14T11:36:38.930Z,8.80
2023-02-14T11:39:30.770Z,10.00
2023-02-14T11:42:01.521Z,9.00
2023-02-14T11:44:31.392Z,10.30
2023-02-14T11:47:15.726Z,9.10
2023-02-14T11:49:55.142Z,11.30
2023-02-14T11:52:26.948Z,8.80
2023-02-14T11:54:54.571Z,8.90
2023-02-14T11:57:36.216Z,8.90
2023-02-14T12:00:14.797Z,9.00
2023-02-14T12:02:45.097Z,8.90
2023-02-14T12:05:26.669Z,10.50
2023-02-14T12:07:56.949Z,8.90
2023-02-14T12:10:27.905Z,8.90
2023-02-14T12:13:10.463Z,8.90
2023-02-14T12:15:43.012Z,9.00
2023-02-14T12:18:34.181Z,9.30
2023-02-14T12:21:07.464Z,9.10
2023-02-14T12:24:05.861Z,9.20
2023-02-14T12:26:41.086Z,9.00
2023-02-14T12:29:53.058Z,9.40
2023-02-14T12:32:21.910Z,9.60
2023-02-14T12:34:50.161Z,9.40
2023-02-14T12:37:27.447Z,9.40
2023-02-14T12:40:11.748Z,9.60
2023-02-14T12:43:17.794Z,9.60
2023-02-14T12:46:18.410Z,10.20
2023-02-14T12:49:29.636Z,9.50
2023-02-14T12:52:18.326Z,9.20
2023-02-14T12:57:27.373Z,8.90
2023-02-14T13:00:03.204Z,9.10
2023-02-14T13:02:42.992Z,8.90
2023-02-14T13:05:39.443Z,8.90
2023-02-14T13:08:12.408Z,9.00
2023-02-14T13:10:54.400Z,9.10
2023-02-14T13:13:56.704Z,8.80
2023-02-14T13:16:41.115Z,8.80
2023-02-14T13:19:28.778Z,9.00
2023-02-14T13:21:59.787Z,8.80
2023-02-14T13:24:31.886Z,8.50
2023-02-14T13:27:02.675Z,8.50
2023-02-14T13:29:45.901Z,8.50
2023-02-14T13:32:18.243Z,8.30
2023-02-14T13:34:47.213Z,8.30
2023-02-14T13:37:19.580Z,8.30
2023-02-14T13:39:50.479Z,8.50
2023-02-14T13:42:48.656Z,8.30
2023-02-14T13:45:37.756Z,8.40
2023-02-14T13:48:13.551Z,8.50
2023-02-14T13:50:49.285Z,8.10
2023-02-14T13:53:41.011Z,7.80
2023-02-14T13:56:15.552Z,8.20
2023-02-14T13:58:56.308Z,8.20
2023-02-14T14:01:48.293Z,8.40
2023-02-14T14:04:32.140Z,8.40
2023-02-14T14:07:17.081Z,8.30
2023-02-14T14:09:44.371Z,8.30
2023-02-14T14:12:29.409Z,8.50
2023-02-14T14:15:05.715Z,8.40
2023-02-14T14:18:10.209Z,8.60
2023-02-14T14:20:42.532Z,8.30
2023-02-14T14:23:33.234Z,8.20
2023-02-14T14:26:01.896Z,8.10
2023-02-14T14:28:32.446Z,8.20
2023-02-14T14:33:34.185Z,8.30
2023-02-14T14:36:08.564Z,8.30
2023-02-14T14:38:46.456Z,8.30
2023-02-14T14:41:13.251Z,8.20
2023-02-14T14:43:41.178Z,8.00
2023-02-14T14:46:13.602Z,8.10
2023-02-14T14:48:46.996Z,8.10
2023-02-14T14:51:28.753Z,8.10
2023-02-14T14:54:16.089Z,7.90
2023-02-14T14:57:01.938Z,8.10
2023-02-14T14:59:35.156Z,7.90
2023-02-14T15:02:22.999Z,10.00
2023-02-14T15:04:49.795Z,7.70
2023-02-14T15:07:27.987Z,7.90
2023-02-14T15:12:42.683Z,7.70
2023-02-14T15:15:15.808Z,7.50
2023-02-14T15:17:43.822Z,7.90
2023-02-14T15:20:23.651Z,7.70
2023-02-14T15:22:53.063Z,7.60
2023-02-14T15:25:24.222Z,7.70
2023-02-14T15:27:51.442Z,7.80
2023-02-14T15:30:24.415Z,7.80
2023-02-14T15:32:52.239Z,7.70
2023-02-14T15:35:27.720Z,7.90
2023-02-14T15:37:55.799Z,7.80
2023-02-14T15:40:26.647Z,8.00
2023-02-14T15:42:57.019Z,7.70
2023-02-14T15:45:31.185Z,7.60
2023-02-14T15:48:03.029Z,7.50
2023-02-14T15:50:34.198Z,7.50
2023-02-14T15:53:07.544Z,7.50
2023-02-14T15:55:35.681Z,7.50
2023-02-14T15:58:24.571Z,7.20
2023-02-14T16:00:53.546Z,7.30
2023-02-14T16:03:27.038Z,7.30
2023-02-14T16:05:55.328Z,7.20
2023-02-14T16:08:31.769Z,10.10
2023-02-14T16:11:32.140Z,7.10
2023-02-14T16:13:59.573Z,7.00
2023-02-14T16:16:26.868Z,7.00
2023-02-14T16:18:56.876Z,7.70
2023-02-14T16:21:25.487Z,7.30
2023-02-14T16:24:07.626Z,7.50
2023-02-14T16:26:37.469Z,7.30
2023-02-14T16:29:05.960Z,6.90
2023-02-14T16:31:34.099Z,7.30
2023-02-14T16:34:00.925Z,7.40
2023-02-14T16:36:31.863Z,6.90
2023-02-14T16:38:59.545Z,7.00
2023-02-14T16:41:28.953Z,7.00
2023-02-14T16:43:57.299Z,7.10
2023-02-14T16:46:28.991Z,7.20
2023-02-14T16:48:57.226Z,8.60
2023-02-14T16:51:33.094Z,7.20
2023-02-14T16:54:03.986Z,7.30
2023-02-14T16:56:46.360Z,7.30
2023-02-14T17:01:41.038Z,8.50
2023-02-14T17:04:10.386Z,6.90
2023-02-14T17:06:41.966Z,7.10
2023-02-14T17:09:12.007Z,8.00
2023-02-14T17:11:45.221Z,7.20
2023-02-14T17:14:17.915Z,7.10
2023-02-14T17:16:45.139Z,7.20
2023-02-14T17:19:12.343Z,9.40
2023-02-14T17:21:39.638Z,8.60
2023-02-14T17:24:07.926Z,7.00
2023-02-14T17:26:35.162Z,7.00
2023-02-14T17:29:02.453Z,7.00
2023-02-14T17:31:29.309Z,7.00
2023-02-14T17:33:56.331Z,6.60
2023-02-14T17:38:53.868Z,7.10
2023-02-14T17:41:24.091Z,6.70
2023-02-14T17:43:53.058Z,6.80
2023-02-14T17:46:20.718Z,6.70
2023-02-14T17:48:49.036Z,7.00
2023-02-14T17:51:18.343Z,6.60
2023-02-14T17:56:20.516Z,7.00
2023-02-14T17:58:49.303Z,6.70
2023-02-14T18:01:18.081Z,6.80
2023-02-14T18:03:45.384Z,5.90
2023-02-14T18:06:14.544Z,6.40
2023-02-14T18:08:46.282Z,6.70
2023-02-14T18:11:14.499Z,6.40
2023-02-14T18:13:42.001Z,5.90
2023-02-14T18:16:11.613Z,5.70
2023-02-14T18:21:11.303Z,5.70
2023-02-14T18:23:39.011Z,6.10
2023-02-14T18:26:10.586Z,6.00
2023-02-14T18:31:15.406Z,6.30
2023-02-14T18:33:52.160Z,6.30
2023-02-14T18:36:27.907Z,6.10
2023-02-14T18:38:57.712Z,6.30
2023-02-14T18:41:26.575Z,5.80
2023-02-14T18:43:53.648Z,6.40
2023-02-14T18:46:25.540Z,5.50
2023-02-14T18:48:52.921Z,5.90
2023-02-14T18:51:29.370Z,5.60
2023-02-14T18:53:59.836Z,5.70
2023-02-14T18:56:31.011Z,5.60
2023-02-14T18:59:01.318Z,5.30
2023-02-14T19:01:36.842Z,5.60
2023-02-14T19:04:06.671Z,5.20
2023-02-14T19:09:02.514Z,5.20
2023-02-14T19:11:34.629Z,5.20
2023-02-14T19:14:02.891Z,5.10
2023-02-14T19:16:33.392Z,5.40
2023-02-14T19:19:02.943Z,5.40
2023-02-14T19:21:35.214Z,5.20
2023-02-14T19:24:06.812Z,5.30
2023-02-14T19:26:43.477Z,5.10
2023-02-14T19:29:13.423Z,5.00
2023-02-14T19:31:42.847Z,5.10
2023-02-14T19:34:19.778Z,4.90
2023-02-14T19:41:41.889Z,4.80
2023-02-14T19:44:10.571Z,5.00
2023-02-14T19:46:39.053Z,4.80
2023-02-14T19:51:36.083Z,4.50
2023-02-14T19:54:06.086Z,4.50
2023-02-14T19:56:35.390Z,4.50
2023-02-14T20:01:46.317Z,4.50
2023-02-14T20:04:17.017Z,4.50
2023-02-14T20:11:50.992Z,4.00
2023-02-14T20:14:24.050Z,4.00
2023-02-14T20:16:52.266Z,4.00
2023-02-14T20:19:22.256Z,3.90
2023-02-14T20:21:51.188Z,4.60
2023-02-14T20:24:29.745Z,3.90
2023-02-14T20:26:57.559Z,3.90
2023-02-14T20:29:25.947Z,3.80
2023-02-14T20:31:55.048Z,3.70
2023-02-14T20:34:22.431Z,3.70
2023-02-14T20:36:53.038Z,3.70
2023-02-14T20:39:21.883Z,3.80
2023-02-14T20:41:52.303Z,3.70
2023-02-14T20:44:22.887Z,3.60
2023-02-14T20:46:52.704Z,3.60
2023-02-14T20:49:21.468Z,3.70
2023-02-14T20:51:50.142Z,3.60
2023-02-14T20:54:21.955Z,3.80
2023-02-14T20:56:51.199Z,3.80
2023-02-14T20:59:27.109Z,3.90
2023-02-14T21:01:56.287Z,3.90
2023-02-14T21:24:15.028Z,3.70
2023-02-14T21:26:42.661Z,3.80
2023-02-14T21:29:10.756Z,3.80
2023-02-14T21:31:37.722Z,3.70
2023-02-14T21:34:04.886Z,3.60
2023-02-14T21:36:35.621Z,3.50
2023-02-14T21:39:04.812Z,3.20
2023-02-14T21:41:32.535Z,3.30
2023-02-14T21:44:01.226Z,3.20
2023-02-14T21:46:31.334Z,3.00
2023-02-14T21:49:18.137Z,2.90
2023-02-14T21:51:45.434Z,2.90
2023-02-14T21:54:13.595Z,2.80
2023-02-14T21:56:44.307Z,2.70
2023-02-14T21:59:12.482Z,2.60
2023-02-14T22:01:41.561Z,2.70
2023-02-14T22:04:11.043Z,2.70
2023-02-14T22:06:40.288Z,2.70
2023-02-14T22:09:07.635Z,2.70
2023-02-14T22:11:35.801Z,2.60
2023-02-14T22:14:02.915Z,3.10
2023-02-14T22:16:29.741Z,2.50
2023-02-14T22:18:56.929Z,2.40
2023-02-14T22:21:25.536Z,2.30
2023-02-14T22:23:53.558Z,2.40
2023-02-14T22:26:23.009Z,2.30
2023-02-14T22:28:51.669Z,2.30
2023-02-14T22:31:19.450Z,3.30
2023-02-14T22:33:48.097Z,2.20
2023-02-14T22:36:15.336Z,2.30
2023-02-14T22:38:43.010Z,2.10
2023-02-14T22:41:26.476Z,2.10
2023-02-14T22:43:54.288Z,2.10
2023-02-14T22:46:26.923Z,2.80
2023-02-14T22:48:55.170Z,2.00
2023-02-14T22:51:22.402Z,2.00
2023-02-14T22:53:51.763Z,2.00
2023-02-14T22:56:34.850Z,2.00
2023-02-14T22:59:04.915Z,2.00
2023-02-14T23:01:33.943Z,2.00
2023-02-14T23:04:02.379Z,2.00
2023-02-14T23:06:31.389Z,2.20
2023-02-14T23:08:59.062Z,1.90
2023-02-14T23:11:28.677Z,1.90
2023-02-14T23:14:15.092Z,1.90
2023-02-14T23:17:01.013Z,2.60
2023-02-14T23:19:49.043Z,1.90
2023-02-14T23:22:22.374Z,1.90
2023-02-14T23:24:51.539Z,1.10
2023-02-14T23:27:25.121Z,2.00
2023-02-14T23:32:19.483Z,1.60
2023-02-14T23:34:46.356Z,1.70
2023-02-14T23:37:14.251Z,1.70
2023-02-14T23:42:11.788Z,1.70
2023-02-14T23:47:08.604Z,1.60
2023-02-14T23:49:37.201Z,1.40
2023-02-14T23:52:06.555Z,1.60
2023-02-14T23:54:33.899Z,1.60
2023-02-14T23:57:00.703Z,1.70
2023-02-14T23:59:27.904Z,1.60
